sensor_id;sensor_type;location;lat;lon;timestamp;pressure;altitude;pressure_sealevel;temperature
20289;BMP180;10303;51.960;8.372;2023-04-16T00:01:43;100694.00;;;13.00
20289;BMP180;10303;51.960;8.372;2023-04-16T00:04:09;100691.00;;;13.00
20289;BMP180;10303;51.960;8.372;2023-04-16T00:06:34;100694.00;;;13.00
20289;BMP180;10303;51.960;8.372;2023-04-16T00:09:01;100691.00;;;13.00
20289;BMP180;10303;51.960;8.372;2023-04-16T00:11:27;100686.00;;;13.00
20289;BMP180;10303;51.960;8.372;2023-04-16T00:13:52;100703.00;;;13.00
20289;BMP180;10303;51.960;8.372;2023-04-16T00:16:18;100705.00;;;13.00
20289;BMP180;10303;51.960;8.372;2023-04-16T00:18:45;100700.00;;;13.00
20289;BMP180;10303;51.960;8.372;2023-04-16T00:21:11;100700.00;;;13.00
20289;BMP180;10303;51.960;8.372;2023-04-16T00:23:37;100702.00;;;13.00
20289;BMP180;10303;51.960;8.372;2023-04-16T00:26:03;100691.00;;;13.00
20289;BMP180;10303;51.960;8.372;2023-04-16T00:28:29;100697.00;;;13.00
20289;BMP180;10303;51.960;8.372;2023-04-16T00:30:55;100710.00;;;13.00
20289;BMP180;10303;51.960;8.372;2023-04-16T00:33:22;100699.00;;;12.90
20289;BMP180;10303;51.960;8.372;2023-04-16T00:35:48;100705.00;;;12.90
20289;BMP180;10303;51.960;8.372;2023-04-16T00:38:14;100705.00;;;13.00
20289;BMP180;10303;51.960;8.372;2023-04-16T00:40:40;100699.00;;;12.90
20289;BMP180;10303;51.960;8.372;2023-04-16T00:43:06;100702.00;;;12.90
20289;BMP180;10303;51.960;8.372;2023-04-16T00:45:32;100698.00;;;12.90
20289;BMP180;10303;51.960;8.372;2023-04-16T00:47:59;100701.00;;;12.90
20289;BMP180;10303;51.960;8.372;2023-04-16T00:50:25;100685.00;;;12.90
20289;BMP180;10303;51.960;8.372;2023-04-16T00:52:51;100694.00;;;12.90
20289;BMP180;10303;51.960;8.372;2023-04-16T00:55:18;100694.00;;;12.90
20289;BMP180;10303;51.960;8.372;2023-04-16T00:57:45;100697.00;;;12.90
20289;BMP180;10303;51.960;8.372;2023-04-16T01:00:12;100696.00;;;12.90
20289;BMP180;10303;51.960;8.372;2023-04-16T01:02:38;100703.00;;;12.90
20289;BMP180;10303;51.960;8.372;2023-04-16T01:05:05;100700.00;;;12.90
20289;BMP180;10303;51.960;8.372;2023-04-16T01:07:31;100693.00;;;12.90
20289;BMP180;10303;51.960;8.372;2023-04-16T01:09:57;100693.00;;;12.90
20289;BMP180;10303;51.960;8.372;2023-04-16T01:12:23;100703.00;;;12.90
20289;BMP180;10303;51.960;8.372;2023-04-16T01:14:49;100697.00;;;12.90
20289;BMP180;10303;51.960;8.372;2023-04-16T01:17:15;100707.00;;;12.90
20289;BMP180;10303;51.960;8.372;2023-04-16T01:19:41;100704.00;;;12.90
20289;BMP180;10303;51.960;8.372;2023-04-16T01:22:07;100703.00;;;12.90
20289;BMP180;10303;51.960;8.372;2023-04-16T01:24:34;100706.00;;;12.90
20289;BMP180;10303;51.960;8.372;2023-04-16T01:27:00;100713.00;;;12.90
20289;BMP180;10303;51.960;8.372;2023-04-16T01:29:26;100717.00;;;12.90
20289;BMP180;10303;51.960;8.372;2023-04-16T01:31:55;100718.00;;;12.90
20289;BMP180;10303;51.960;8.372;2023-04-16T01:34:26;100717.00;;;12.90
20289;BMP180;10303;51.960;8.372;2023-04-16T01:36:52;100722.00;;;12.90
20289;BMP180;10303;51.960;8.372;2023-04-16T01:39:18;100724.00;;;12.90
20289;BMP180;10303;51.960;8.372;2023-04-16T01:41:44;100717.00;;;13.00
20289;BMP180;10303;51.960;8.372;2023-04-16T01:44:10;100728.00;;;13.00
20289;BMP180;10303;51.960;8.372;2023-04-16T01:46:37;100730.00;;;13.00
20289;BMP180;10303;51.960;8.372;2023-04-16T01:49:04;100731.00;;;13.00
20289;BMP180;10303;51.960;8.372;2023-04-16T01:51:30;100732.00;;;13.00
20289;BMP180;10303;51.960;8.372;2023-04-16T01:53:57;100738.00;;;13.00
20289;BMP180;10303;51.960;8.372;2023-04-16T01:56:23;100739.00;;;13.00
20289;BMP180;10303;51.960;8.372;2023-04-16T01:58:49;100739.00;;;13.00
20289;BMP180;10303;51.960;8.372;2023-04-16T02:01:18;100731.00;;;13.00
20289;BMP180;10303;51.960;8.372;2023-04-16T02:03:46;100728.00;;;13.00
20289;BMP180;10303;51.960;8.372;2023-04-16T02:06:12;100732.00;;;13.00
20289;BMP180;10303;51.960;8.372;2023-04-16T02:08:37;100720.00;;;13.00
20289;BMP180;10303;51.960;8.372;2023-04-16T02:11:03;100715.00;;;13.00
20289;BMP180;10303;51.960;8.372;2023-04-16T02:13:29;100724.00;;;13.00
20289;BMP180;10303;51.960;8.372;2023-04-16T02:15:55;100730.00;;;13.00
20289;BMP180;10303;51.960;8.372;2023-04-16T02:18:33;100732.00;;;13.00
20289;BMP180;10303;51.960;8.372;2023-04-16T02:20:59;100741.00;;;13.00
20289;BMP180;10303;51.960;8.372;2023-04-16T02:23:25;100734.00;;;13.00
20289;BMP180;10303;51.960;8.372;2023-04-16T02:25:52;100742.00;;;13.00
20289;BMP180;10303;51.960;8.372;2023-04-16T02:28:18;100733.00;;;12.90
20289;BMP180;10303;51.960;8.372;2023-04-16T02:30:45;100732.00;;;13.00
20289;BMP180;10303;51.960;8.372;2023-04-16T02:33:13;100743.00;;;13.00
20289;BMP180;10303;51.960;8.372;2023-04-16T02:35:50;100739.00;;;13.00
20289;BMP180;10303;51.960;8.372;2023-04-16T02:38:16;100742.00;;;12.90
20289;BMP180;10303;51.960;8.372;2023-04-16T02:40:41;100747.00;;;12.90
20289;BMP180;10303;51.960;8.372;2023-04-16T02:43:08;100732.00;;;12.90
20289;BMP180;10303;51.960;8.372;2023-04-16T02:45:34;100737.00;;;12.90
20289;BMP180;10303;51.960;8.372;2023-04-16T02:48:00;100731.00;;;12.90
20289;BMP180;10303;51.960;8.372;2023-04-16T02:50:26;100725.00;;;12.90
20289;BMP180;10303;51.960;8.372;2023-04-16T02:52:52;100738.00;;;12.90
20289;BMP180;10303;51.960;8.372;2023-04-16T02:55:18;100739.00;;;12.90
20289;BMP180;10303;51.960;8.372;2023-04-16T02:57:44;100741.00;;;12.90
20289;BMP180;10303;51.960;8.372;2023-04-16T03:00:10;100732.00;;;12.90
20289;BMP180;10303;51.960;8.372;2023-04-16T03:02:37;100738.00;;;12.90
20289;BMP180;10303;51.960;8.372;2023-04-16T03:05:03;100745.00;;;12.90
20289;BMP180;10303;51.960;8.372;2023-04-16T03:07:30;100745.00;;;12.90
20289;BMP180;10303;51.960;8.372;2023-04-16T03:09:56;100752.00;;;12.90
20289;BMP180;10303;51.960;8.372;2023-04-16T03:12:22;100753.00;;;12.90
20289;BMP180;10303;51.960;8.372;2023-04-16T03:14:50;100744.00;;;12.90
20289;BMP180;10303;51.960;8.372;2023-04-16T03:17:17;100739.00;;;12.90
20289;BMP180;10303;51.960;8.372;2023-04-16T03:19:43;100734.00;;;12.90
20289;BMP180;10303;51.960;8.372;2023-04-16T03:22:09;100742.00;;;12.90
20289;BMP180;10303;51.960;8.372;2023-04-16T03:24:35;100748.00;;;12.90
20289;BMP180;10303;51.960;8.372;2023-04-16T03:27:02;100747.00;;;12.90
20289;BMP180;10303;51.960;8.372;2023-04-16T03:29:28;100751.00;;;12.90
20289;BMP180;10303;51.960;8.372;2023-04-16T03:31:55;100755.00;;;12.90
20289;BMP180;10303;51.960;8.372;2023-04-16T03:34:22;100752.00;;;12.80
20289;BMP180;10303;51.960;8.372;2023-04-16T03:36:48;100756.00;;;12.90
20289;BMP180;10303;51.960;8.372;2023-04-16T03:39:14;100764.00;;;12.90
20289;BMP180;10303;51.960;8.372;2023-04-16T03:41:40;100766.00;;;12.80
20289;BMP180;10303;51.960;8.372;2023-04-16T03:44:07;100761.00;;;12.80
20289;BMP180;10303;51.960;8.372;2023-04-16T03:46:34;100761.00;;;12.80
20289;BMP180;10303;51.960;8.372;2023-04-16T03:49:00;100763.00;;;12.80
20289;BMP180;10303;51.960;8.372;2023-04-16T03:51:27;100768.00;;;12.80
20289;BMP180;10303;51.960;8.372;2023-04-16T03:53:53;100766.00;;;12.80
20289;BMP180;10303;51.960;8.372;2023-04-16T03:56:19;100769.00;;;12.80
20289;BMP180;10303;51.960;8.372;2023-04-16T03:58:45;100773.00;;;12.80
20289;BMP180;10303;51.960;8.372;2023-04-16T04:01:11;100776.00;;;12.80
20289;BMP180;10303;51.960;8.372;2023-04-16T04:03:37;100775.00;;;12.80
20289;BMP180;10303;51.960;8.372;2023-04-16T04:06:07;100776.00;;;12.70
20289;BMP180;10303;51.960;8.372;2023-04-16T04:08:33;100782.00;;;12.70
20289;BMP180;10303;51.960;8.372;2023-04-16T04:11:01;100785.00;;;12.70
20289;BMP180;10303;51.960;8.372;2023-04-16T04:13:29;100788.00;;;12.70
20289;BMP180;10303;51.960;8.372;2023-04-16T04:15:56;100789.00;;;12.60
20289;BMP180;10303;51.960;8.372;2023-04-16T04:18:22;100797.00;;;12.60
20289;BMP180;10303;51.960;8.372;2023-04-16T04:20:48;100797.00;;;12.60
20289;BMP180;10303;51.960;8.372;2023-04-16T04:23:17;100800.00;;;12.60
20289;BMP180;10303;51.960;8.372;2023-04-16T04:25:44;100803.00;;;12.60
20289;BMP180;10303;51.960;8.372;2023-04-16T04:28:12;100794.00;;;12.60
20289;BMP180;10303;51.960;8.372;2023-04-16T04:30:38;100802.00;;;12.60
20289;BMP180;10303;51.960;8.372;2023-04-16T04:33:05;100806.00;;;12.50
20289;BMP180;10303;51.960;8.372;2023-04-16T04:35:32;100812.00;;;12.50
20289;BMP180;10303;51.960;8.372;2023-04-16T04:38:00;100806.00;;;12.50
20289;BMP180;10303;51.960;8.372;2023-04-16T04:40:27;100798.00;;;12.50
20289;BMP180;10303;51.960;8.372;2023-04-16T04:42:52;100803.00;;;12.50
20289;BMP180;10303;51.960;8.372;2023-04-16T04:45:21;100804.00;;;12.50
20289;BMP180;10303;51.960;8.372;2023-04-16T04:47:52;100812.00;;;12.50
20289;BMP180;10303;51.960;8.372;2023-04-16T04:50:18;100818.00;;;12.50
20289;BMP180;10303;51.960;8.372;2023-04-16T04:52:44;100819.00;;;12.40
20289;BMP180;10303;51.960;8.372;2023-04-16T04:55:10;100828.00;;;12.40
20289;BMP180;10303;51.960;8.372;2023-04-16T04:57:37;100829.00;;;12.40
20289;BMP180;10303;51.960;8.372;2023-04-16T05:00:05;100843.00;;;12.40
20289;BMP180;10303;51.960;8.372;2023-04-16T05:02:40;100838.00;;;12.40
20289;BMP180;10303;51.960;8.372;2023-04-16T05:05:06;100834.00;;;12.40
20289;BMP180;10303;51.960;8.372;2023-04-16T05:07:32;100844.00;;;12.40
20289;BMP180;10303;51.960;8.372;2023-04-16T05:09:58;100850.00;;;12.40
20289;BMP180;10303;51.960;8.372;2023-04-16T05:12:24;100846.00;;;12.30
20289;BMP180;10303;51.960;8.372;2023-04-16T05:14:50;100847.00;;;12.30
20289;BMP180;10303;51.960;8.372;2023-04-16T05:17:16;100850.00;;;12.30
20289;BMP180;10303;51.960;8.372;2023-04-16T05:19:42;100849.00;;;12.30
20289;BMP180;10303;51.960;8.372;2023-04-16T05:22:08;100854.00;;;12.30
20289;BMP180;10303;51.960;8.372;2023-04-16T05:24:34;100856.00;;;12.30
20289;BMP180;10303;51.960;8.372;2023-04-16T05:26:59;100863.00;;;12.30
20289;BMP180;10303;51.960;8.372;2023-04-16T05:29:26;100864.00;;;12.30
20289;BMP180;10303;51.960;8.372;2023-04-16T05:31:52;100861.00;;;12.30
20289;BMP180;10303;51.960;8.372;2023-04-16T05:34:18;100876.00;;;12.30
20289;BMP180;10303;51.960;8.372;2023-04-16T05:36:43;100868.00;;;12.30
20289;BMP180;10303;51.960;8.372;2023-04-16T05:39:10;100874.00;;;12.30
20289;BMP180;10303;51.960;8.372;2023-04-16T05:41:36;100882.00;;;12.30
20289;BMP180;10303;51.960;8.372;2023-04-16T05:44:02;100883.00;;;12.40
20289;BMP180;10303;51.960;8.372;2023-04-16T05:46:28;100883.00;;;12.40
20289;BMP180;10303;51.960;8.372;2023-04-16T05:48:54;100883.00;;;12.40
20289;BMP180;10303;51.960;8.372;2023-04-16T05:51:19;100899.00;;;12.40
20289;BMP180;10303;51.960;8.372;2023-04-16T05:53:47;100902.00;;;12.40
20289;BMP180;10303;51.960;8.372;2023-04-16T05:56:13;100910.00;;;12.40
20289;BMP180;10303;51.960;8.372;2023-04-16T05:58:39;100903.00;;;12.30
20289;BMP180;10303;51.960;8.372;2023-04-16T06:01:05;100903.00;;;12.30
20289;BMP180;10303;51.960;8.372;2023-04-16T06:03:32;100909.00;;;12.30
20289;BMP180;10303;51.960;8.372;2023-04-16T06:05:58;100909.00;;;12.30
20289;BMP180;10303;51.960;8.372;2023-04-16T06:08:24;100914.00;;;12.30
20289;BMP180;10303;51.960;8.372;2023-04-16T06:10:50;100914.00;;;12.30
20289;BMP180;10303;51.960;8.372;2023-04-16T06:13:16;100913.00;;;12.30
20289;BMP180;10303;51.960;8.372;2023-04-16T06:15:42;100905.00;;;12.30
20289;BMP180;10303;51.960;8.372;2023-04-16T06:18:08;100911.00;;;12.30
20289;BMP180;10303;51.960;8.372;2023-04-16T06:20:34;100907.00;;;12.30
20289;BMP180;10303;51.960;8.372;2023-04-16T06:23:00;100901.00;;;12.30
20289;BMP180;10303;51.960;8.372;2023-04-16T06:25:26;100907.00;;;12.30
20289;BMP180;10303;51.960;8.372;2023-04-16T06:27:52;100914.00;;;12.40
20289;BMP180;10303;51.960;8.372;2023-04-16T06:30:18;100907.00;;;12.40
20289;BMP180;10303;51.960;8.372;2023-04-16T06:32:44;100914.00;;;12.40
20289;BMP180;10303;51.960;8.372;2023-04-16T06:35:11;100913.00;;;12.40
20289;BMP180;10303;51.960;8.372;2023-04-16T06:37:37;100911.00;;;12.40
20289;BMP180;10303;51.960;8.372;2023-04-16T06:40:04;100918.00;;;12.40
20289;BMP180;10303;51.960;8.372;2023-04-16T06:42:30;100924.00;;;12.50
20289;BMP180;10303;51.960;8.372;2023-04-16T06:44:56;100921.00;;;12.50
20289;BMP180;10303;51.960;8.372;2023-04-16T06:47:22;100921.00;;;12.50
20289;BMP180;10303;51.960;8.372;2023-04-16T06:49:48;100927.00;;;12.50
20289;BMP180;10303;51.960;8.372;2023-04-16T06:52:14;100930.00;;;12.50
20289;BMP180;10303;51.960;8.372;2023-04-16T06:54:40;100930.00;;;12.50
20289;BMP180;10303;51.960;8.372;2023-04-16T06:57:05;100938.00;;;12.50
20289;BMP180;10303;51.960;8.372;2023-04-16T06:59:31;100928.00;;;12.60
20289;BMP180;10303;51.960;8.372;2023-04-16T07:01:57;100933.00;;;12.60
20289;BMP180;10303;51.960;8.372;2023-04-16T07:04:23;100937.00;;;12.60
20289;BMP180;10303;51.960;8.372;2023-04-16T07:06:49;100943.00;;;12.70
20289;BMP180;10303;51.960;8.372;2023-04-16T07:09:15;100940.00;;;12.70
20289;BMP180;10303;51.960;8.372;2023-04-16T07:11:43;100941.00;;;12.70
20289;BMP180;10303;51.960;8.372;2023-04-16T07:14:09;100937.00;;;12.80
20289;BMP180;10303;51.960;8.372;2023-04-16T07:16:35;100941.00;;;12.80
20289;BMP180;10303;51.960;8.372;2023-04-16T07:19:02;100939.00;;;12.90
20289;BMP180;10303;51.960;8.372;2023-04-16T07:21:28;100948.00;;;12.90
20289;BMP180;10303;51.960;8.372;2023-04-16T07:23:54;100949.00;;;12.90
20289;BMP180;10303;51.960;8.372;2023-04-16T07:26:20;100958.00;;;13.00
20289;BMP180;10303;51.960;8.372;2023-04-16T07:28:46;100961.00;;;13.10
20289;BMP180;10303;51.960;8.372;2023-04-16T07:31:12;100952.00;;;13.10
20289;BMP180;10303;51.960;8.372;2023-04-16T07:33:38;100963.00;;;13.20
20289;BMP180;10303;51.960;8.372;2023-04-16T07:36:04;100957.00;;;13.20
20289;BMP180;10303;51.960;8.372;2023-04-16T07:38:30;100961.00;;;13.30
20289;BMP180;10303;51.960;8.372;2023-04-16T07:40:56;100956.00;;;13.30
20289;BMP180;10303;51.960;8.372;2023-04-16T07:43:23;100963.00;;;13.30
20289;BMP180;10303;51.960;8.372;2023-04-16T07:45:49;100968.00;;;13.40
20289;BMP180;10303;51.960;8.372;2023-04-16T07:48:15;100985.00;;;13.40
20289;BMP180;10303;51.960;8.372;2023-04-16T07:50:41;100982.00;;;13.40
20289;BMP180;10303;51.960;8.372;2023-04-16T07:53:10;100981.00;;;13.40
20289;BMP180;10303;51.960;8.372;2023-04-16T07:55:36;100979.00;;;13.50
20289;BMP180;10303;51.960;8.372;2023-04-16T07:58:02;100992.00;;;13.50
20289;BMP180;10303;51.960;8.372;2023-04-16T08:00:28;100980.00;;;13.60
20289;BMP180;10303;51.960;8.372;2023-04-16T08:02:54;100998.00;;;13.60
20289;BMP180;10303;51.960;8.372;2023-04-16T08:05:20;100989.00;;;13.70
20289;BMP180;10303;51.960;8.372;2023-04-16T08:07:46;100985.00;;;13.70
20289;BMP180;10303;51.960;8.372;2023-04-16T08:10:13;100989.00;;;13.80
20289;BMP180;10303;51.960;8.372;2023-04-16T08:12:39;100994.00;;;13.80
20289;BMP180;10303;51.960;8.372;2023-04-16T08:15:06;100991.00;;;13.80
20289;BMP180;10303;51.960;8.372;2023-04-16T08:17:32;100995.00;;;13.80
20289;BMP180;10303;51.960;8.372;2023-04-16T08:19:59;100995.00;;;13.80
20289;BMP180;10303;51.960;8.372;2023-04-16T08:22:25;101004.00;;;13.90
20289;BMP180;10303;51.960;8.372;2023-04-16T08:24:51;101013.00;;;13.90
20289;BMP180;10303;51.960;8.372;2023-04-16T08:27:17;101004.00;;;13.90
20289;BMP180;10303;51.960;8.372;2023-04-16T08:29:43;101013.00;;;13.90
20289;BMP180;10303;51.960;8.372;2023-04-16T08:32:09;101012.00;;;14.00
20289;BMP180;10303;51.960;8.372;2023-04-16T08:34:36;101019.00;;;14.00
20289;BMP180;10303;51.960;8.372;2023-04-16T08:37:02;101017.00;;;14.10
20289;BMP180;10303;51.960;8.372;2023-04-16T08:39:28;101020.00;;;14.20
20289;BMP180;10303;51.960;8.372;2023-04-16T08:41:55;101021.00;;;14.20
20289;BMP180;10303;51.960;8.372;2023-04-16T08:44:27;101027.00;;;14.30
20289;BMP180;10303;51.960;8.372;2023-04-16T08:46:56;101029.00;;;14.40
20289;BMP180;10303;51.960;8.372;2023-04-16T08:49:25;101023.00;;;14.50
20289;BMP180;10303;51.960;8.372;2023-04-16T08:51:53;101031.00;;;14.50
20289;BMP180;10303;51.960;8.372;2023-04-16T08:57:09;101043.00;;;14.60
20289;BMP180;10303;51.960;8.372;2023-04-16T08:59:37;101044.00;;;14.70
20289;BMP180;10303;51.960;8.372;2023-04-16T09:02:05;101051.00;;;14.70
20289;BMP180;10303;51.960;8.372;2023-04-16T09:04:32;101041.00;;;14.80
20289;BMP180;10303;51.960;8.372;2023-04-16T09:07:01;101034.00;;;14.80
20289;BMP180;10303;51.960;8.372;2023-04-16T09:09:29;101035.00;;;14.80
20289;BMP180;10303;51.960;8.372;2023-04-16T09:11:56;101035.00;;;14.90
20289;BMP180;10303;51.960;8.372;2023-04-16T09:14:22;101034.00;;;14.90
20289;BMP180;10303;51.960;8.372;2023-04-16T09:16:50;101036.00;;;14.90
20289;BMP180;10303;51.960;8.372;2023-04-16T09:19:17;101035.00;;;14.90
20289;BMP180;10303;51.960;8.372;2023-04-16T09:21:46;101041.00;;;15.00
20289;BMP180;10303;51.960;8.372;2023-04-16T09:24:13;101039.00;;;15.00
20289;BMP180;10303;51.960;8.372;2023-04-16T09:26:41;101039.00;;;15.10
20289;BMP180;10303;51.960;8.372;2023-04-16T09:29:10;101046.00;;;15.10
20289;BMP180;10303;51.960;8.372;2023-04-16T09:31:36;101050.00;;;15.10
20289;BMP180;10303;51.960;8.372;2023-04-16T09:34:09;101051.00;;;15.10
20289;BMP180;10303;51.960;8.372;2023-04-16T09:36:35;101049.00;;;15.20
20289;BMP180;10303;51.960;8.372;2023-04-16T09:39:02;101058.00;;;15.20
20289;BMP180;10303;51.960;8.372;2023-04-16T09:41:31;101056.00;;;15.20
20289;BMP180;10303;51.960;8.372;2023-04-16T09:44:03;101064.00;;;15.20
20289;BMP180;10303;51.960;8.372;2023-04-16T09:46:33;101065.00;;;15.20
20289;BMP180;10303;51.960;8.372;2023-04-16T09:49:14;101063.00;;;15.20
20289;BMP180;10303;51.960;8.372;2023-04-16T09:51:45;101067.00;;;15.20
20289;BMP180;10303;51.960;8.372;2023-04-16T09:54:11;101071.00;;;15.20
20289;BMP180;10303;51.960;8.372;2023-04-16T09:56:45;101067.00;;;15.10
20289;BMP180;10303;51.960;8.372;2023-04-16T09:59:21;101077.00;;;15.10
20289;BMP180;10303;51.960;8.372;2023-04-16T10:01:48;101083.00;;;15.10
20289;BMP180;10303;51.960;8.372;2023-04-16T10:04:15;101084.00;;;15.00
20289;BMP180;10303;51.960;8.372;2023-04-16T10:06:41;101086.00;;;15.00
20289;BMP180;10303;51.960;8.372;2023-04-16T10:09:08;101092.00;;;14.90
20289;BMP180;10303;51.960;8.372;2023-04-16T10:11:36;101095.00;;;14.90
20289;BMP180;10303;51.960;8.372;2023-04-16T10:14:02;101095.00;;;14.90
20289;BMP180;10303;51.960;8.372;2023-04-16T10:16:29;101094.00;;;14.90
20289;BMP180;10303;51.960;8.372;2023-04-16T10:18:55;101095.00;;;14.80
20289;BMP180;10303;51.960;8.372;2023-04-16T10:21:21;101101.00;;;14.80
20289;BMP180;10303;51.960;8.372;2023-04-16T10:23:50;101103.00;;;14.70
20289;BMP180;10303;51.960;8.372;2023-04-16T10:26:17;101105.00;;;14.70
20289;BMP180;10303;51.960;8.372;2023-04-16T10:28:44;101100.00;;;14.70
20289;BMP180;10303;51.960;8.372;2023-04-16T10:31:11;101106.00;;;14.70
20289;BMP180;10303;51.960;8.372;2023-04-16T10:33:41;101104.00;;;14.60
20289;BMP180;10303;51.960;8.372;2023-04-16T10:36:24;101109.00;;;14.60
20289;BMP180;10303;51.960;8.372;2023-04-16T10:38:52;101105.00;;;14.60
20289;BMP180;10303;51.960;8.372;2023-04-16T10:41:21;101104.00;;;14.60
20289;BMP180;10303;51.960;8.372;2023-04-16T10:43:50;101099.00;;;14.60
20289;BMP180;10303;51.960;8.372;2023-04-16T10:46:23;101103.00;;;14.60
20289;BMP180;10303;51.960;8.372;2023-04-16T10:48:59;101107.00;;;14.60
20289;BMP180;10303;51.960;8.372;2023-04-16T10:51:34;101109.00;;;14.60
20289;BMP180;10303;51.960;8.372;2023-04-16T10:56:49;101110.00;;;14.70
20289;BMP180;10303;51.960;8.372;2023-04-16T10:59:41;101106.00;;;14.60
20289;BMP180;10303;51.960;8.372;2023-04-16T11:02:16;101111.00;;;14.60
20289;BMP180;10303;51.960;8.372;2023-04-16T11:04:44;101106.00;;;14.60
20289;BMP180;10303;51.960;8.372;2023-04-16T11:09:53;101112.00;;;14.60
20289;BMP180;10303;51.960;8.372;2023-04-16T11:14:58;101115.00;;;14.60
20289;BMP180;10303;51.960;8.372;2023-04-16T11:17:48;101110.00;;;14.60
20289;BMP180;10303;51.960;8.372;2023-04-16T11:20:23;101114.00;;;14.60
20289;BMP180;10303;51.960;8.372;2023-04-16T11:22:51;101114.00;;;14.60
20289;BMP180;10303;51.960;8.372;2023-04-16T11:25:28;101115.00;;;14.60
20289;BMP180;10303;51.960;8.372;2023-04-16T11:27:55;101109.00;;;14.60
20289;BMP180;10303;51.960;8.372;2023-04-16T11:30:37;101094.00;;;14.60
20289;BMP180;10303;51.960;8.372;2023-04-16T11:33:09;101113.00;;;14.70
20289;BMP180;10303;51.960;8.372;2023-04-16T11:35:37;101109.00;;;14.70
20289;BMP180;10303;51.960;8.372;2023-04-16T11:38:04;101120.00;;;14.70
20289;BMP180;10303;51.960;8.372;2023-04-16T11:40:33;101110.00;;;14.70
20289;BMP180;10303;51.960;8.372;2023-04-16T11:43:14;101118.00;;;14.70
20289;BMP180;10303;51.960;8.372;2023-04-16T11:46:04;101115.00;;;14.70
20289;BMP180;10303;51.960;8.372;2023-04-16T11:48:51;101112.00;;;14.70
20289;BMP180;10303;51.960;8.372;2023-04-16T11:51:18;101116.00;;;14.70
20289;BMP180;10303;51.960;8.372;2023-04-16T11:53:49;101100.00;;;14.70
20289;BMP180;10303;51.960;8.372;2023-04-16T11:56:28;101117.00;;;14.70
20289;BMP180;10303;51.960;8.372;2023-04-16T11:59:12;101120.00;;;14.70
20289;BMP180;10303;51.960;8.372;2023-04-16T12:01:40;101118.00;;;14.70
20289;BMP180;10303;51.960;8.372;2023-04-16T12:04:07;101110.00;;;14.80
20289;BMP180;10303;51.960;8.372;2023-04-16T12:06:33;101123.00;;;14.80
20289;BMP180;10303;51.960;8.372;2023-04-16T12:09:00;101119.00;;;14.80
20289;BMP180;10303;51.960;8.372;2023-04-16T12:11:46;101121.00;;;14.80
20289;BMP180;10303;51.960;8.372;2023-04-16T12:14:12;101125.00;;;14.90
20289;BMP180;10303;51.960;8.372;2023-04-16T12:16:38;101120.00;;;14.90
20289;BMP180;10303;51.960;8.372;2023-04-16T12:19:04;101121.00;;;14.90
20289;BMP180;10303;51.960;8.372;2023-04-16T12:21:45;101127.00;;;14.90
20289;BMP180;10303;51.960;8.372;2023-04-16T12:24:14;101133.00;;;14.90
20289;BMP180;10303;51.960;8.372;2023-04-16T12:26:52;101132.00;;;14.90
20289;BMP180;10303;51.960;8.372;2023-04-16T12:29:23;101138.00;;;15.00
20289;BMP180;10303;51.960;8.372;2023-04-16T12:31:51;101135.00;;;15.00
20289;BMP180;10303;51.960;8.372;2023-04-16T12:34:21;101139.00;;;15.00
20289;BMP180;10303;51.960;8.372;2023-04-16T12:37:01;101132.00;;;15.00
20289;BMP180;10303;51.960;8.372;2023-04-16T12:39:27;101131.00;;;15.10
20289;BMP180;10303;51.960;8.372;2023-04-16T12:41:53;101136.00;;;15.10
20289;BMP180;10303;51.960;8.372;2023-04-16T12:44:19;101136.00;;;15.10
20289;BMP180;10303;51.960;8.372;2023-04-16T12:46:45;101125.00;;;15.10
20289;BMP180;10303;51.960;8.372;2023-04-16T12:49:11;101133.00;;;15.10
20289;BMP180;10303;51.960;8.372;2023-04-16T12:51:37;101140.00;;;15.10
20289;BMP180;10303;51.960;8.372;2023-04-16T12:54:06;101127.00;;;15.10
20289;BMP180;10303;51.960;8.372;2023-04-16T12:56:33;101141.00;;;15.20
20289;BMP180;10303;51.960;8.372;2023-04-16T12:58:59;101133.00;;;15.20
20289;BMP180;10303;51.960;8.372;2023-04-16T13:01:25;101137.00;;;15.20
20289;BMP180;10303;51.960;8.372;2023-04-16T13:03:51;101139.00;;;15.20
20289;BMP180;10303;51.960;8.372;2023-04-16T13:06:17;101144.00;;;15.20
20289;BMP180;10303;51.960;8.372;2023-04-16T13:08:44;101141.00;;;15.20
20289;BMP180;10303;51.960;8.372;2023-04-16T13:11:10;101138.00;;;15.20
20289;BMP180;10303;51.960;8.372;2023-04-16T13:13:37;101139.00;;;15.20
20289;BMP180;10303;51.960;8.372;2023-04-16T13:16:03;101138.00;;;15.20
20289;BMP180;10303;51.960;8.372;2023-04-16T13:18:33;101142.00;;;15.20
20289;BMP180;10303;51.960;8.372;2023-04-16T13:20:59;101135.00;;;15.20
20289;BMP180;10303;51.960;8.372;2023-04-16T13:23:25;101143.00;;;15.20
20289;BMP180;10303;51.960;8.372;2023-04-16T13:25:52;101142.00;;;15.30
20289;BMP180;10303;51.960;8.372;2023-04-16T13:28:18;101134.00;;;15.30
20289;BMP180;10303;51.960;8.372;2023-04-16T13:30:45;101136.00;;;15.30
20289;BMP180;10303;51.960;8.372;2023-04-16T13:33:12;101135.00;;;15.30
20289;BMP180;10303;51.960;8.372;2023-04-16T13:35:38;101135.00;;;15.40
20289;BMP180;10303;51.960;8.372;2023-04-16T13:38:04;101136.00;;;15.40
20289;BMP180;10303;51.960;8.372;2023-04-16T13:40:31;101122.00;;;15.40
20289;BMP180;10303;51.960;8.372;2023-04-16T13:42:57;101136.00;;;15.40
20289;BMP180;10303;51.960;8.372;2023-04-16T13:45:23;101128.00;;;15.50
20289;BMP180;10303;51.960;8.372;2023-04-16T13:47:49;101128.00;;;15.50
20289;BMP180;10303;51.960;8.372;2023-04-16T13:50:16;101133.00;;;15.50
20289;BMP180;10303;51.960;8.372;2023-04-16T13:52:42;101123.00;;;15.60
20289;BMP180;10303;51.960;8.372;2023-04-16T13:55:08;101133.00;;;15.70
20289;BMP180;10303;51.960;8.372;2023-04-16T13:57:34;101140.00;;;15.70
20289;BMP180;10303;51.960;8.372;2023-04-16T14:00:02;101130.00;;;15.80
20289;BMP180;10303;51.960;8.372;2023-04-16T14:02:30;101125.00;;;15.80
20289;BMP180;10303;51.960;8.372;2023-04-16T14:04:57;101123.00;;;15.90
20289;BMP180;10303;51.960;8.372;2023-04-16T14:07:23;101131.00;;;15.90
20289;BMP180;10303;51.960;8.372;2023-04-16T14:09:52;101123.00;;;16.00